sensor_id;sensor_type;location;lat;lon;timestamp;P1;durP1;ratioP1;P2;durP2;ratioP2
52074;SDS011;38075;53.172;5.446;2022-09-30T00:01:43;0.60;;;0.60;;
52074;SDS011;38075;53.172;5.446;2022-09-30T00:04:14;0.60;;;0.60;;
52074;SDS011;38075;53.172;5.446;2022-09-30T00:06:41;0.70;;;0.70;;
52074;SDS011;38075;53.172;5.446;2022-09-30T00:09:07;0.60;;;0.60;;
52074;SDS011;38075;53.172;5.446;2022-09-30T00:11:35;1.10;;;0.90;;
52074;SDS011;38075;53.172;5.446;2022-09-30T00:14:03;0.87;;;0.80;;
52074;SDS011;38075;53.172;5.446;2022-09-30T00:16:31;1.00;;;0.87;;
52074;SDS011;38075;53.172;5.446;2022-09-30T00:18:59;1.07;;;0.77;;
52074;SDS011;38075;53.172;5.446;2022-09-30T00:21:25;1.20;;;0.90;;
52074;SDS011;38075;53.172;5.446;2022-09-30T00:23:52;1.10;;;1.00;;
52074;SDS011;38075;53.172;5.446;2022-09-30T00:26:19;2.27;;;1.40;;
52074;SDS011;38075;53.172;5.446;2022-09-30T00:28:50;3.50;;;1.43;;
52074;SDS011;38075;53.172;5.446;2022-09-30T00:31:17;1.65;;;1.23;;
52074;SDS011;38075;53.172;5.446;2022-09-30T00:33:44;3.23;;;1.60;;
52074;SDS011;38075;53.172;5.446;2022-09-30T00:36:30;3.33;;;1.43;;
52074;SDS011;38075;53.172;5.446;2022-09-30T00:38:55;4.10;;;1.73;;
52074;SDS011;38075;53.172;5.446;2022-09-30T00:41:21;3.77;;;1.87;;
52074;SDS011;38075;53.172;5.446;2022-09-30T00:43:47;2.40;;;1.60;;
52074;SDS011;38075;53.172;5.446;2022-09-30T00:49:15;1.63;;;1.13;;
52074;SDS011;38075;53.172;5.446;2022-09-30T00:51:46;1.07;;;0.70;;
52074;SDS011;38075;53.172;5.446;2022-09-30T00:54:17;0.63;;;0.50;;
52074;SDS011;38075;53.172;5.446;2022-09-30T01:02:11;16.83;;;1.13;;
52074;SDS011;38075;53.172;5.446;2022-09-30T01:04:38;14.23;;;1.10;;
52074;SDS011;38075;53.172;5.446;2022-09-30T01:07:06;9.93;;;0.83;;
52074;SDS011;38075;53.172;5.446;2022-09-30T01:09:35;11.03;;;1.00;;
52074;SDS011;38075;53.172;5.446;2022-09-30T01:12:04;11.13;;;1.13;;
52074;SDS011;38075;53.172;5.446;2022-09-30T01:14:32;10.47;;;0.60;;
52074;SDS011;38075;53.172;5.446;2022-09-30T01:25:23;15.70;;;1.20;;
52074;SDS011;38075;53.172;5.446;2022-09-30T01:55:30;3.67;;;1.37;;
52074;SDS011;38075;53.172;5.446;2022-09-30T01:58:12;1.80;;;1.20;;
52074;SDS011;38075;53.172;5.446;2022-09-30T02:00:51;2.23;;;1.57;;
52074;SDS011;38075;53.172;5.446;2022-09-30T02:03:21;2.43;;;1.50;;
52074;SDS011;38075;53.172;5.446;2022-09-30T02:13:24;2.07;;;1.30;;
52074;SDS011;38075;53.172;5.446;2022-09-30T02:18:57;0.60;;;0.60;;
52074;SDS011;38075;53.172;5.446;2022-09-30T02:21:22;10.13;;;1.07;;
52074;SDS011;38075;53.172;5.446;2022-09-30T02:23:52;0.70;;;0.40;;
52074;SDS011;38075;53.172;5.446;2022-09-30T02:26:24;0.30;;;0.30;;
52074;SDS011;38075;53.172;5.446;2022-09-30T02:28:55;4.90;;;0.40;;
52074;SDS011;38075;53.172;5.446;2022-09-30T02:31:30;0.97;;;0.30;;
52074;SDS011;38075;53.172;5.446;2022-09-30T02:34:03;0.50;;;0.50;;
52074;SDS011;38075;53.172;5.446;2022-09-30T02:39:05;0.40;;;0.40;;
52074;SDS011;38075;53.172;5.446;2022-09-30T02:41:38;0.50;;;0.50;;
52074;SDS011;38075;53.172;5.446;2022-09-30T02:44:14;0.30;;;0.30;;
52074;SDS011;38075;53.172;5.446;2022-09-30T02:49:22;0.40;;;0.40;;
52074;SDS011;38075;53.172;5.446;2022-09-30T02:54:47;0.40;;;0.40;;
52074;SDS011;38075;53.172;5.446;2022-09-30T03:00:09;0.43;;;0.43;;
52074;SDS011;38075;53.172;5.446;2022-09-30T03:02:35;0.30;;;0.30;;
52074;SDS011;38075;53.172;5.446;2022-09-30T03:05:00;0.40;;;0.40;;
52074;SDS011;38075;53.172;5.446;2022-09-30T03:07:27;0.50;;;0.50;;
52074;SDS011;38075;53.172;5.446;2022-09-30T03:09:56;0.60;;;0.43;;
52074;SDS011;38075;53.172;5.446;2022-09-30T03:18:13;8.60;;;0.73;;
52074;SDS011;38075;53.172;5.446;2022-09-30T03:21:05;0.30;;;0.30;;
52074;SDS011;38075;53.172;5.446;2022-09-30T03:29:33;3.43;;;0.40;;
52074;SDS011;38075;53.172;5.446;2022-09-30T03:32:08;9.63;;;1.00;;
52074;SDS011;38075;53.172;5.446;2022-09-30T03:48:00;4.10;;;0.80;;
52074;SDS011;38075;53.172;5.446;2022-09-30T03:50:28;7.53;;;1.27;;
52074;SDS011;38075;53.172;5.446;2022-09-30T03:52:56;10.00;;;1.67;;
52074;SDS011;38075;53.172;5.446;2022-09-30T03:55:22;15.83;;;1.23;;
52074;SDS011;38075;53.172;5.446;2022-09-30T03:57:49;2.03;;;0.87;;
52074;SDS011;38075;53.172;5.446;2022-09-30T04:00:15;7.97;;;1.60;;
52074;SDS011;38075;53.172;5.446;2022-09-30T04:02:44;2.30;;;1.50;;
52074;SDS011;38075;53.172;5.446;2022-09-30T04:05:10;5.13;;;1.50;;
52074;SDS011;38075;53.172;5.446;2022-09-30T04:07:39;8.63;;;1.70;;
52074;SDS011;38075;53.172;5.446;2022-09-30T04:10:05;31.10;;;2.40;;
52074;SDS011;38075;53.172;5.446;2022-09-30T04:12:31;9.73;;;1.20;;
52074;SDS011;38075;53.172;5.446;2022-09-30T04:14:59;10.87;;;1.60;;
52074;SDS011;38075;53.172;5.446;2022-09-30T04:17:24;11.60;;;1.67;;
52074;SDS011;38075;53.172;5.446;2022-09-30T04:19:50;3.70;;;0.93;;
52074;SDS011;38075;53.172;5.446;2022-09-30T04:22:16;6.60;;;1.00;;
52074;SDS011;38075;53.172;5.446;2022-09-30T04:24:41;12.63;;;1.80;;
52074;SDS011;38075;53.172;5.446;2022-09-30T04:27:08;10.17;;;1.43;;
52074;SDS011;38075;53.172;5.446;2022-09-30T04:29:33;13.53;;;1.57;;
52074;SDS011;38075;53.172;5.446;2022-09-30T04:31:59;10.67;;;1.57;;
52074;SDS011;38075;53.172;5.446;2022-09-30T04:34:25;16.57;;;1.80;;
52074;SDS011;38075;53.172;5.446;2022-09-30T04:36:50;16.80;;;2.20;;
52074;SDS011;38075;53.172;5.446;2022-09-30T04:39:16;19.87;;;2.30;;
52074;SDS011;38075;53.172;5.446;2022-09-30T04:41:42;16.30;;;2.00;;
52074;SDS011;38075;53.172;5.446;2022-09-30T04:44:07;30.30;;;2.90;;
52074;SDS011;38075;53.172;5.446;2022-09-30T04:46:33;19.50;;;2.37;;
52074;SDS011;38075;53.172;5.446;2022-09-30T04:49:01;3.63;;;1.80;;
52074;SDS011;38075;53.172;5.446;2022-09-30T04:51:30;11.63;;;1.83;;
52074;SDS011;38075;53.172;5.446;2022-09-30T04:53:56;9.70;;;1.67;;
52074;SDS011;38075;53.172;5.446;2022-09-30T04:56:22;5.90;;;1.90;;
52074;SDS011;38075;53.172;5.446;2022-09-30T04:58:48;17.80;;;2.40;;
52074;SDS011;38075;53.172;5.446;2022-09-30T05:01:16;6.50;;;1.90;;
52074;SDS011;38075;53.172;5.446;2022-09-30T05:03:42;4.97;;;2.43;;
52074;SDS011;38075;53.172;5.446;2022-09-30T05:06:09;6.80;;;2.40;;
52074;SDS011;38075;53.172;5.446;2022-09-30T05:08:35;25.60;;;2.57;;
52074;SDS011;38075;53.172;5.446;2022-09-30T05:11:03;12.57;;;2.17;;
52074;SDS011;38075;53.172;5.446;2022-09-30T05:13:34;2.33;;;1.93;;
52074;SDS011;38075;53.172;5.446;2022-09-30T05:16:01;1.90;;;1.70;;
52074;SDS011;38075;53.172;5.446;2022-09-30T05:18:27;2.20;;;1.80;;
52074;SDS011;38075;53.172;5.446;2022-09-30T05:20:54;3.87;;;1.87;;
52074;SDS011;38075;53.172;5.446;2022-09-30T05:23:21;7.37;;;1.80;;
52074;SDS011;38075;53.172;5.446;2022-09-30T05:25:48;5.27;;;1.90;;
52074;SDS011;38075;53.172;5.446;2022-09-30T05:28:14;1.93;;;1.73;;
52074;SDS011;38075;53.172;5.446;2022-09-30T05:30:43;1.77;;;1.50;;
52074;SDS011;38075;53.172;5.446;2022-09-30T05:33:10;7.83;;;1.30;;
52074;SDS011;38075;53.172;5.446;2022-09-30T05:35:37;2.00;;;0.83;;
52074;SDS011;38075;53.172;5.446;2022-09-30T05:38:05;11.70;;;1.43;;
52074;SDS011;38075;53.172;5.446;2022-09-30T05:40:31;11.93;;;1.23;;
52074;SDS011;38075;53.172;5.446;2022-09-30T05:42:57;2.30;;;0.63;;
52074;SDS011;38075;53.172;5.446;2022-09-30T05:45:24;9.77;;;1.30;;
52074;SDS011;38075;53.172;5.446;2022-09-30T05:47:54;11.23;;;1.50;;
52074;SDS011;38075;53.172;5.446;2022-09-30T05:50:20;7.33;;;1.30;;
52074;SDS011;38075;53.172;5.446;2022-09-30T05:52:47;1.27;;;1.10;;
52074;SDS011;38075;53.172;5.446;2022-09-30T05:55:14;1.10;;;1.07;;
52074;SDS011;38075;53.172;5.446;2022-09-30T05:57:40;2.03;;;1.50;;
52074;SDS011;38075;53.172;5.446;2022-09-30T06:00:10;3.23;;;1.10;;
52074;SDS011;38075;53.172;5.446;2022-09-30T06:02:36;1.30;;;1.20;;
52074;SDS011;38075;53.172;5.446;2022-09-30T06:05:05;2.17;;;1.33;;
52074;SDS011;38075;53.172;5.446;2022-09-30T06:07:35;19.63;;;1.57;;
52074;SDS011;38075;53.172;5.446;2022-09-30T06:10:02;7.63;;;1.70;;
52074;SDS011;38075;53.172;5.446;2022-09-30T06:12:29;19.37;;;2.00;;
52074;SDS011;38075;53.172;5.446;2022-09-30T06:14:55;12.13;;;1.80;;
52074;SDS011;38075;53.172;5.446;2022-09-30T06:17:21;1.70;;;1.43;;
52074;SDS011;38075;53.172;5.446;2022-09-30T06:19:47;1.43;;;1.33;;
52074;SDS011;38075;53.172;5.446;2022-09-30T06:22:14;1.50;;;1.40;;
52074;SDS011;38075;53.172;5.446;2022-09-30T06:24:40;1.83;;;1.10;;
52074;SDS011;38075;53.172;5.446;2022-09-30T06:27:06;1.23;;;1.13;;
52074;SDS011;38075;53.172;5.446;2022-09-30T06:29:32;1.10;;;0.90;;
52074;SDS011;38075;53.172;5.446;2022-09-30T06:31:58;2.03;;;1.50;;
52074;SDS011;38075;53.172;5.446;2022-09-30T06:34:24;5.73;;;1.67;;
52074;SDS011;38075;53.172;5.446;2022-09-30T06:36:49;1.83;;;1.40;;
52074;SDS011;38075;53.172;5.446;2022-09-30T06:39:15;2.57;;;1.80;;
52074;SDS011;38075;53.172;5.446;2022-09-30T06:41:43;1.50;;;1.40;;
52074;SDS011;38075;53.172;5.446;2022-09-30T06:44:09;1.77;;;1.37;;
52074;SDS011;38075;53.172;5.446;2022-09-30T06:46:35;2.63;;;1.93;;
52074;SDS011;38075;53.172;5.446;2022-09-30T06:49:01;2.77;;;2.20;;
52074;SDS011;38075;53.172;5.446;2022-09-30T06:51:28;3.60;;;2.43;;
52074;SDS011;38075;53.172;5.446;2022-09-30T06:53:57;3.23;;;2.20;;
52074;SDS011;38075;53.172;5.446;2022-09-30T06:56:23;4.20;;;2.67;;
52074;SDS011;38075;53.172;5.446;2022-09-30T06:58:50;4.40;;;3.00;;
52074;SDS011;38075;53.172;5.446;2022-09-30T07:01:15;5.33;;;3.53;;
52074;SDS011;38075;53.172;5.446;2022-09-30T07:03:42;4.37;;;3.20;;
52074;SDS011;38075;53.172;5.446;2022-09-30T07:06:09;4.97;;;3.33;;
52074;SDS011;38075;53.172;5.446;2022-09-30T07:08:39;5.97;;;3.60;;
52074;SDS011;38075;53.172;5.446;2022-09-30T07:11:06;7.07;;;3.80;;
52074;SDS011;38075;53.172;5.446;2022-09-30T07:13:38;4.57;;;3.37;;
52074;SDS011;38075;53.172;5.446;2022-09-30T07:16:10;7.90;;;3.80;;
52074;SDS011;38075;53.172;5.446;2022-09-30T07:18:39;7.67;;;3.80;;
52074;SDS011;38075;53.172;5.446;2022-09-30T07:21:06;5.83;;;3.53;;
52074;SDS011;38075;53.172;5.446;2022-09-30T07:23:34;4.25;;;3.08;;
52074;SDS011;38075;53.172;5.446;2022-09-30T07:26:00;5.18;;;3.38;;
52074;SDS011;38075;53.172;5.446;2022-09-30T07:28:30;3.63;;;2.77;;
52074;SDS011;38075;53.172;5.446;2022-09-30T07:30:59;4.05;;;2.78;;
52074;SDS011;38075;53.172;5.446;2022-09-30T07:33:30;4.63;;;2.78;;
52074;SDS011;38075;53.172;5.446;2022-09-30T07:35:57;5.35;;;3.22;;
52074;SDS011;38075;53.172;5.446;2022-09-30T07:38:25;5.07;;;3.10;;
52074;SDS011;38075;53.172;5.446;2022-09-30T07:40:55;3.47;;;2.60;;
52074;SDS011;38075;53.172;5.446;2022-09-30T07:43:23;3.13;;;2.17;;
52074;SDS011;38075;53.172;5.446;2022-09-30T07:45:52;3.22;;;2.42;;
52074;SDS011;38075;53.172;5.446;2022-09-30T07:48:19;3.80;;;2.80;;
52074;SDS011;38075;53.172;5.446;2022-09-30T07:51:07;4.53;;;3.00;;
52074;SDS011;38075;53.172;5.446;2022-09-30T07:53:34;5.43;;;2.58;;
52074;SDS011;38075;53.172;5.446;2022-09-30T07:56:06;3.88;;;2.47;;
52074;SDS011;38075;53.172;5.446;2022-09-30T07:58:32;4.22;;;2.65;;
52074;SDS011;38075;53.172;5.446;2022-09-30T08:00:58;4.70;;;2.78;;
52074;SDS011;38075;53.172;5.446;2022-09-30T08:03:24;3.30;;;2.42;;
52074;SDS011;38075;53.172;5.446;2022-09-30T08:05:50;3.33;;;2.65;;
52074;SDS011;38075;53.172;5.446;2022-09-30T08:08:16;3.28;;;2.40;;
52074;SDS011;38075;53.172;5.446;2022-09-30T08:10:42;3.42;;;2.45;;
52074;SDS011;38075;53.172;5.446;2022-09-30T08:13:08;3.50;;;2.50;;
52074;SDS011;38075;53.172;5.446;2022-09-30T08:15:34;4.68;;;2.53;;
52074;SDS011;38075;53.172;5.446;2022-09-30T08:18:00;3.70;;;2.42;;
52074;SDS011;38075;53.172;5.446;2022-09-30T08:20:26;3.88;;;2.60;;
52074;SDS011;38075;53.172;5.446;2022-09-30T08:22:56;7.20;;;2.28;;
52074;SDS011;38075;53.172;5.446;2022-09-30T08:25:22;2.83;;;1.90;;
52074;SDS011;38075;53.172;5.446;2022-09-30T08:27:49;2.80;;;1.98;;
52074;SDS011;38075;53.172;5.446;2022-09-30T08:30:15;2.13;;;1.45;;
52074;SDS011;38075;53.172;5.446;2022-09-30T08:32:43;1.83;;;1.55;;
52074;SDS011;38075;53.172;5.446;2022-09-30T08:35:09;2.60;;;1.60;;
52074;SDS011;38075;53.172;5.446;2022-09-30T08:37:35;1.40;;;1.20;;
52074;SDS011;38075;53.172;5.446;2022-09-30T08:40:00;2.20;;;1.70;;
52074;SDS011;38075;53.172;5.446;2022-09-30T08:45:39;1.45;;;1.15;;
52074;SDS011;38075;53.172;5.446;2022-09-30T08:48:28;1.60;;;0.90;;
52074;SDS011;38075;53.172;5.446;2022-09-30T08:53:51;3.00;;;1.23;;
52074;SDS011;38075;53.172;5.446;2022-09-30T08:56:27;1.83;;;1.30;;
52074;SDS011;38075;53.172;5.446;2022-09-30T08:58:56;2.33;;;1.33;;
52074;SDS011;38075;53.172;5.446;2022-09-30T09:01:30;2.67;;;1.70;;
52074;SDS011;38075;53.172;5.446;2022-09-30T09:03:58;3.50;;;1.90;;
52074;SDS011;38075;53.172;5.446;2022-09-30T09:15:18;2.38;;;1.75;;
52074;SDS011;38075;53.172;5.446;2022-09-30T09:23:24;4.47;;;1.80;;
52074;SDS011;38075;53.172;5.446;2022-09-30T09:25:52;3.17;;;1.75;;
52074;SDS011;38075;53.172;5.446;2022-09-30T09:28:30;2.25;;;1.67;;
52074;SDS011;38075;53.172;5.446;2022-09-30T09:31:04;7.32;;;2.08;;
52074;SDS011;38075;53.172;5.446;2022-09-30T09:33:38;4.65;;;1.98;;
52074;SDS011;38075;53.172;5.446;2022-09-30T09:41:35;5.60;;;1.13;;
52074;SDS011;38075;53.172;5.446;2022-09-30T09:46:58;2.67;;;1.38;;
52074;SDS011;38075;53.172;5.446;2022-09-30T09:49:38;3.33;;;1.80;;
52074;SDS011;38075;53.172;5.446;2022-09-30T09:54:49;2.00;;;1.45;;
52074;SDS011;38075;53.172;5.446;2022-09-30T09:57:20;2.70;;;1.50;;
52074;SDS011;38075;53.172;5.446;2022-09-30T10:02:23;2.88;;;1.60;;
52074;SDS011;38075;53.172;5.446;2022-09-30T10:04:54;1.88;;;1.60;;
52074;SDS011;38075;53.172;5.446;2022-09-30T10:07:28;3.03;;;2.00;;
52074;SDS011;38075;53.172;5.446;2022-09-30T10:10:06;3.80;;;2.30;;
52074;SDS011;38075;53.172;5.446;2022-09-30T10:12:46;3.63;;;2.15;;
52074;SDS011;38075;53.172;5.446;2022-09-30T10:15:19;2.45;;;1.83;;
52074;SDS011;38075;53.172;5.446;2022-09-30T10:17:56;2.83;;;1.90;;
52074;SDS011;38075;53.172;5.446;2022-09-30T10:20:30;2.67;;;2.20;;
52074;SDS011;38075;53.172;5.446;2022-09-30T10:23:06;3.47;;;2.25;;
52074;SDS011;38075;53.172;5.446;2022-09-30T10:25:35;3.58;;;1.80;;
52074;SDS011;38075;53.172;5.446;2022-09-30T10:28:03;3.35;;;2.13;;
52074;SDS011;38075;53.172;5.446;2022-09-30T10:30:45;3.13;;;2.17;;
52074;SDS011;38075;53.172;5.446;2022-09-30T10:33:28;3.70;;;2.13;;
52074;SDS011;38075;53.172;5.446;2022-09-30T10:36:15;3.35;;;2.10;;
52074;SDS011;38075;53.172;5.446;2022-09-30T10:41:41;3.55;;;2.22;;
52074;SDS011;38075;53.172;5.446;2022-09-30T10:44:28;3.78;;;2.33;;
52074;SDS011;38075;53.172;5.446;2022-09-30T10:46:57;3.03;;;2.30;;
52074;SDS011;38075;53.172;5.446;2022-09-30T10:49:41;3.78;;;2.72;;
52074;SDS011;38075;53.172;5.446;2022-09-30T10:52:25;5.57;;;2.75;;
52074;SDS011;38075;53.172;5.446;2022-09-30T10:54:57;4.25;;;2.83;;
52074;SDS011;38075;53.172;5.446;2022-09-30T10:57:28;3.67;;;2.70;;
52074;SDS011;38075;53.172;5.446;2022-09-30T10:59:58;5.47;;;2.67;;
52074;SDS011;38075;53.172;5.446;2022-09-30T11:05:16;4.00;;;2.90;;
52074;SDS011;38075;53.172;5.446;2022-09-30T11:08:08;4.18;;;3.10;;
52074;SDS011;38075;53.172;5.446;2022-09-30T11:10:52;3.50;;;2.72;;
52074;SDS011;38075;53.172;5.446;2022-09-30T11:26:42;3.25;;;2.40;;
52074;SDS011;38075;53.172;5.446;2022-09-30T11:44:17;2.15;;;1.50;;
52074;SDS011;38075;53.172;5.446;2022-09-30T11:58:16;2.83;;;1.45;;
52074;SDS011;38075;53.172;5.446;2022-09-30T12:00:53;3.88;;;1.70;;
52074;SDS011;38075;53.172;5.446;2022-09-30T12:06:02;1.50;;;1.20;;
52074;SDS011;38075;53.172;5.446;2022-09-30T12:08:51;1.30;;;1.20;;
52074;SDS011;38075;53.172;5.446;2022-09-30T12:11:35;1.40;;;0.98;;
52074;SDS011;38075;53.172;5.446;2022-09-30T12:20:06;1.35;;;0.95;;
52074;SDS011;38075;53.172;5.446;2022-09-30T12:25:33;1.95;;;1.10;;
52074;SDS011;38075;53.172;5.446;2022-09-30T12:28:07;1.60;;;1.40;;
52074;SDS011;38075;53.172;5.446;2022-09-30T12:34:00;2.83;;;2.07;;
52074;SDS011;38075;53.172;5.446;2022-09-30T12:42:24;2.63;;;1.90;;
52074;SDS011;38075;53.172;5.446;2022-09-30T12:48:07;4.20;;;2.65;;
52074;SDS011;38075;53.172;5.446;2022-09-30T12:50:41;5.18;;;3.20;;
52074;SDS011;38075;53.172;5.446;2022-09-30T12:53:30;4.10;;;3.03;;
52074;SDS011;38075;53.172;5.446;2022-09-30T12:56:02;4.20;;;3.08;;
52074;SDS011;38075;53.172;5.446;2022-09-30T12:58:33;4.45;;;2.47;;
52074;SDS011;38075;53.172;5.446;2022-09-30T13:01:04;3.95;;;2.55;;
52074;SDS011;38075;53.172;5.446;2022-09-30T13:06:23;4.78;;;3.30;;
52074;SDS011;38075;53.172;5.446;2022-09-30T13:09:16;4.22;;;3.33;;
52074;SDS011;38075;53.172;5.446;2022-09-30T13:32:39;4.82;;;3.45;;
52074;SDS011;38075;53.172;5.446;2022-09-30T13:38:09;3.67;;;2.67;;
52074;SDS011;38075;53.172;5.446;2022-09-30T13:46:03;2.65;;;2.00;;
52074;SDS011;38075;53.172;5.446;2022-09-30T13:48:32;3.15;;;1.98;;
52074;SDS011;38075;53.172;5.446;2022-09-30T13:51:02;3.20;;;2.10;;
52074;SDS011;38075;53.172;5.446;2022-09-30T13:56:11;3.35;;;1.90;;
52074;SDS011;38075;53.172;5.446;2022-09-30T14:01:43;2.25;;;1.67;;
52074;SDS011;38075;53.172;5.446;2022-09-30T14:10:27;2.03;;;1.45;;
52074;SDS011;38075;53.172;5.446;2022-09-30T14:24:10;2.38;;;1.38;;
52074;SDS011;38075;53.172;5.446;2022-09-30T14:32:16;2.42;;;1.40;;
52074;SDS011;38075;53.172;5.446;2022-09-30T14:34:45;1.98;;;1.50;;
52074;SDS011;38075;53.172;5.446;2022-09-30T14:37:17;2.33;;;1.48;;
52074;SDS011;38075;53.172;5.446;2022-09-30T14:39:47;2.10;;;1.42;;
52074;SDS011;38075;53.172;5.446;2022-09-30T14:42:19;1.95;;;1.45;;
52074;SDS011;38075;53.172;5.446;2022-09-30T14:44:57;1.75;;;1.50;;
52074;SDS011;38075;53.172;5.446;2022-09-30T14:47:32;2.95;;;1.60;;
52074;SDS011;38075;53.172;5.446;2022-09-30T14:50:07;4.13;;;1.77;;
52074;SDS011;38075;53.172;5.446;2022-09-30T14:52:41;5.85;;;1.85;;
52074;SDS011;38075;53.172;5.446;2022-09-30T14:57:49;1.95;;;1.48;;
52074;SDS011;38075;53.172;5.446;2022-09-30T15:00:29;2.45;;;1.80;;
52074;SDS011;38075;53.172;5.446;2022-09-30T15:02:56;2.95;;;1.88;;
52074;SDS011;38075;53.172;5.446;2022-09-30T15:05:23;4.00;;;2.08;;
52074;SDS011;38075;53.172;5.446;2022-09-30T15:07:50;3.78;;;1.90;;
52074;SDS011;38075;53.172;5.446;2022-09-30T15:10:18;4.30;;;2.38;;
52074;SDS011;38075;53.172;5.446;2022-09-30T15:12:46;4.57;;;3.03;;
52074;SDS011;38075;53.172;5.446;2022-09-30T15:15:34;6.13;;;2.47;;
52074;SDS011;38075;53.172;5.446;2022-09-30T15:20:48;2.58;;;1.83;;
52074;SDS011;38075;53.172;5.446;2022-09-30T15:23:27;2.45;;;1.92;;
52074;SDS011;38075;53.172;5.446;2022-09-30T15:25:56;4.03;;;1.88;;
52074;SDS011;38075;53.172;5.446;2022-09-30T15:28:23;3.10;;;2.05;;
52074;SDS011;38075;53.172;5.446;2022-09-30T15:30:50;2.78;;;2.00;;
52074;SDS011;38075;53.172;5.446;2022-09-30T15:33:19;3.55;;;2.00;;
52074;SDS011;38075;53.172;5.446;2022-09-30T15:35:48;3.88;;;2.13;;
52074;SDS011;38075;53.172;5.446;2022-09-30T15:38:15;4.35;;;2.17;;
52074;SDS011;38075;53.172;5.446;2022-09-30T15:40:59;3.40;;;2.30;;
52074;SDS011;38075;53.172;5.446;2022-09-30T15:43:33;5.05;;;2.45;;
52074;SDS011;38075;53.172;5.446;2022-09-30T15:48:59;4.88;;;2.63;;
52074;SDS011;38075;53.172;5.446;2022-09-30T15:53:54;7.38;;;2.60;;
52074;SDS011;38075;53.172;5.446;2022-09-30T15:56:31;7.80;;;2.63;;
52074;SDS011;38075;53.172;5.446;2022-09-30T15:59:13;3.70;;;2.60;;
52074;SDS011;38075;53.172;5.446;2022-09-30T16:01:43;5.90;;;2.72;;
52074;SDS011;38075;53.172;5.446;2022-09-30T16:06:53;4.80;;;2.17;;
52074;SDS011;38075;53.172;5.446;2022-09-30T16:14:54;4.88;;;1.77;;
52074;SDS011;38075;53.172;5.446;2022-09-30T16:19:58;3.17;;;1.65;;
52074;SDS011;38075;53.172;5.446;2022-09-30T16:25:09;2.55;;;1.52;;
52074;SDS011;38075;53.172;5.446;2022-09-30T16:27:55;3.05;;;1.60;;
52074;SDS011;38075;53.172;5.446;2022-09-30T16:30:23;2.72;;;1.60;;
52074;SDS011;38075;53.172;5.446;2022-09-30T16:32:50;3.33;;;1.58;;
52074;SDS011;38075;53.172;5.446;2022-09-30T16:35:20;2.65;;;1.52;;
52074;SDS011;38075;53.172;5.446;2022-09-30T16:37:47;2.70;;;1.80;;
52074;SDS011;38075;53.172;5.446;2022-09-30T16:40:16;3.03;;;1.65;;
52074;SDS011;38075;53.172;5.446;2022-09-30T16:42:41;3.20;;;1.67;;
52074;SDS011;38075;53.172;5.446;2022-09-30T16:45:09;4.05;;;1.92;;
52074;SDS011;38075;53.172;5.446;2022-09-30T16:47:38;3.85;;;1.80;;
52074;SDS011;38075;53.172;5.446;2022-09-30T16:50:38;4.22;;;1.90;;
52074;SDS011;38075;53.172;5.446;2022-09-30T16:53:03;3.38;;;1.88;;
52074;SDS011;38075;53.172;5.446;2022-09-30T16:55:29;3.60;;;2.05;;
52074;SDS011;38075;53.172;5.446;2022-09-30T16:57:55;5.50;;;2.20;;
52074;SDS011;38075;53.172;5.446;2022-09-30T17:00:22;6.65;;;2.20;;
52074;SDS011;38075;53.172;5.446;2022-09-30T17:02:51;3.40;;;2.00;;
52074;SDS011;38075;53.172;5.446;2022-09-30T17:05:19;2.35;;;1.77;;
52074;SDS011;38075;53.172;5.446;2022-09-30T17:07:48;3.30;;;1.77;;
52074;SDS011;38075;53.172;5.446;2022-09-30T17:10:24;3.72;;;2.08;;
52074;SDS011;38075;53.172;5.446;2022-09-30T17:12:49;4.68;;;2.30;;
52074;SDS011;38075;53.172;5.446;2022-09-30T17:15:16;5.55;;;2.47;;
52074;SDS011;38075;53.172;5.446;2022-09-30T17:17:43;3.83;;;2.30;;
52074;SDS011;38075;53.172;5.446;2022-09-30T17:20:09;4.90;;;2.63;;
52074;SDS011;38075;53.172;5.446;2022-09-30T17:22:35;5.40;;;2.70;;
52074;SDS011;38075;53.172;5.446;2022-09-30T17:25:03;4.55;;;2.85;;
52074;SDS011;38075;53.172;5.446;2022-09-30T17:27:30;3.95;;;2.92;;
52074;SDS011;38075;53.172;5.446;2022-09-30T17:29:55;3.78;;;2.78;;
52074;SDS011;38075;53.172;5.446;2022-09-30T17:32:21;5.07;;;3.00;;
52074;SDS011;38075;53.172;5.446;2022-09-30T17:34:47;4.85;;;2.90;;
52074;SDS011;38075;53.172;5.446;2022-09-30T17:37:13;4.35;;;3.30;;
52074;SDS011;38075;53.172;5.446;2022-09-30T17:39:39;6.30;;;3.22;;
52074;SDS011;38075;53.172;5.446;2022-09-30T17:42:05;4.65;;;3.50;;
52074;SDS011;38075;53.172;5.446;2022-09-30T17:44:54;5.75;;;4.10;;
52074;SDS011;38075;53.172;5.446;2022-09-30T17:47:20;4.55;;;3.30;;
52074;SDS011;38075;53.172;5.446;2022-09-30T17:49:46;4.07;;;3.20;;
52074;SDS011;38075;53.172;5.446;2022-09-30T17:52:12;5.15;;;3.25;;
52074;SDS011;38075;53.172;5.446;2022-09-30T17:54:39;5.93;;;4.13;;
52074;SDS011;38075;53.172;5.446;2022-09-30T17:57:06;8.85;;;4.20;;
52074;SDS011;38075;53.172;5.446;2022-09-30T17:59:32;6.03;;;4.38;;
52074;SDS011;38075;53.172;5.446;2022-09-30T18:01:58;8.50;;;4.72;;
52074;SDS011;38075;53.172;5.446;2022-09-30T18:04:24;8.93;;;5.38;;
52074;SDS011;38075;53.172;5.446;2022-09-30T18:06:53;6.20;;;4.47;;
52074;SDS011;38075;53.172;5.446;2022-09-30T18:09:20;7.97;;;5.78;;
52074;SDS011;38075;53.172;5.446;2022-09-30T18:11:46;8.77;;;6.50;;
52074;SDS011;38075;53.172;5.446;2022-09-30T18:14:12;11.55;;;6.20;;
52074;SDS011;38075;53.172;5.446;2022-09-30T18:16:38;7.50;;;5.78;;
52074;SDS011;38075;53.172;5.446;2022-09-30T18:19:05;6.97;;;5.47;;
52074;SDS011;38075;53.172;5.446;2022-09-30T18:21:31;7.65;;;6.60;;
52074;SDS011;38075;53.172;5.446;2022-09-30T18:23:58;7.85;;;6.68;;
52074;SDS011;38075;53.172;5.446;2022-09-30T18:26:25;8.05;;;6.90;;
52074;SDS011;38075;53.172;5.446;2022-09-30T18:28:53;8.93;;;7.28;;
52074;SDS011;38075;53.172;5.446;2022-09-30T18:31:20;8.32;;;6.35;;
52074;SDS011;38075;53.172;5.446;2022-09-30T18:34:06;8.18;;;6.20;;
52074;SDS011;38075;53.172;5.446;2022-09-30T18:36:33;7.50;;;5.18;;
52074;SDS011;38075;53.172;5.446;2022-09-30T18:38:59;6.88;;;6.05;;
52074;SDS011;38075;53.172;5.446;2022-09-30T18:41:26;7.68;;;5.55;;
52074;SDS011;38075;53.172;5.446;2022-09-30T18:43:54;8.43;;;5.00;;
52074;SDS011;38075;53.172;5.446;2022-09-30T18:46:26;8.02;;;5.50;;
52074;SDS011;38075;53.172;5.446;2022-09-30T18:48:53;6.93;;;4.97;;
52074;SDS011;38075;53.172;5.446;2022-09-30T18:51:19;6.40;;;5.50;;
52074;SDS011;38075;53.172;5.446;2022-09-30T18:53:50;8.88;;;5.72;;
52074;SDS011;38075;53.172;5.446;2022-09-30T18:56:21;7.55;;;5.07;;
52074;SDS011;38075;53.172;5.446;2022-09-30T18:58:48;7.75;;;5.78;;
52074;SDS011;38075;53.172;5.446;2022-09-30T19:01:15;6.93;;;5.60;;
52074;SDS011;38075;53.172;5.446;2022-09-30T19:03:41;7.72;;;6.85;;
52074;SDS011;38075;53.172;5.446;2022-09-30T19:06:09;7.80;;;5.90;;
52074;SDS011;38075;53.172;5.446;2022-09-30T19:08:35;6.22;;;4.85;;
52074;SDS011;38075;53.172;5.446;2022-09-30T19:11:07;7.63;;;5.90;;
52074;SDS011;38075;53.172;5.446;2022-09-30T19:13:42;7.25;;;5.60;;
52074;SDS011;38075;53.172;5.446;2022-09-30T19:16:09;9.73;;;5.73;;
52074;SDS011;38075;53.172;5.446;2022-09-30T19:18:39;5.90;;;4.75;;
52074;SDS011;38075;53.172;5.446;2022-09-30T19:21:06;6.80;;;5.93;;
52074;SDS011;38075;53.172;5.446;2022-09-30T19:23:34;7.60;;;5.70;;
52074;SDS011;38075;53.172;5.446;2022-09-30T19:26:00;9.55;;;5.85;;
52074;SDS011;38075;53.172;5.446;2022-09-30T19:28:27;6.78;;;5.68;;
52074;SDS011;38075;53.172;5.446;2022-09-30T19:30:55;7.82;;;6.05;;
52074;SDS011;38075;53.172;5.446;2022-09-30T19:33:24;6.65;;;5.15;;
52074;SDS011;38075;53.172;5.446;2022-09-30T19:35:59;7.75;;;5.88;;
52074;SDS011;38075;53.172;5.446;2022-09-30T19:38:33;7.07;;;6.10;;
52074;SDS011;38075;53.172;5.446;2022-09-30T19:41:01;6.43;;;5.55;;